Terminal Aerodrome Forecast
Issued by NWS

Home | Current Version | Previous Version | Text Only | Print | Product List | Glossary On
Versions: 1 2 3 4 5 6 7 8 9 10 11 12 13 14 15
510
FTPA31 PHFO 101135
TAFHOG
TAF
PHOG 101135Z 1012/1112 VRB06KT P6SM SKC
     FM101900 03010G16KT P6SM FEW030 SCT050
     FM110500 05006KT P6SM FEW050
      AMD LTD TO VIS AND WIND TIL 101600=

USA.gov is the U.S. government's official web portal to all federal, state and local government web resources and services.